createdAt,value
2018-12-08T00:00:42.428Z,23.97
2018-12-08T00:03:13.322Z,21.00
2018-12-08T00:05:43.828Z,22.13
2018-12-08T00:08:14.743Z,22.70
2018-12-08T00:10:45.744Z,21.87
2018-12-08T00:13:16.365Z,19.17
2018-12-08T00:15:46.641Z,21.00
2018-12-08T00:18:17.396Z,20.17
2018-12-08T00:20:48.008Z,19.93
2018-12-08T00:23:17.860Z,22.40
2018-12-08T00:25:47.665Z,21.43
2018-12-08T00:28:17.424Z,23.43
2018-12-08T00:30:57.804Z,24.27
2018-12-08T00:33:27.464Z,24.10
2018-12-08T00:35:57.184Z,24.50
2018-12-08T00:38:27.080Z,26.60
2018-12-08T00:40:57.527Z,24.83
2018-12-08T00:43:28.028Z,24.90
2018-12-08T00:45:58.499Z,29.23
2018-12-08T00:48:29.511Z,25.40
2018-12-08T00:51:00.076Z,23.60
2018-12-08T00:53:30.753Z,22.40
2018-12-08T00:56:01.226Z,22.20
2018-12-08T00:58:32.114Z,23.27
2018-12-08T01:01:02.864Z,20.50
2018-12-08T01:03:33.438Z,20.97
2018-12-08T01:06:04.068Z,19.17
2018-12-08T01:08:34.643Z,18.33
2018-12-08T01:11:05.456Z,18.87
2018-12-08T01:13:36.232Z,17.40
2018-12-08T01:16:06.538Z,20.27
2018-12-08T01:18:36.995Z,20.87
2018-12-08T01:21:08.511Z,17.67
2018-12-08T01:23:38.503Z,17.10
2018-12-08T01:26:08.347Z,20.20
2018-12-08T01:28:38.230Z,16.87
2018-12-08T01:31:08.401Z,18.50
2018-12-08T01:33:38.905Z,15.87
2018-12-08T01:36:09.319Z,16.60
2018-12-08T01:38:39.936Z,19.40
2018-12-08T01:41:10.480Z,17.60
2018-12-08T01:43:40.809Z,20.63
2018-12-08T01:46:11.299Z,22.07
2018-12-08T01:48:41.963Z,25.33
2018-12-08T01:51:12.601Z,25.50
2018-12-08T01:53:43.224Z,23.63
2018-12-08T01:56:14.053Z,19.57
2018-12-08T01:58:44.568Z,21.40
2018-12-08T02:01:15.212Z,20.80
2018-12-08T02:03:45.944Z,16.17
2018-12-08T02:06:16.479Z,23.30
2018-12-08T02:08:47.089Z,21.90
2018-12-08T02:11:24.695Z,22.53
2018-12-08T02:13:49.989Z,20.93
2018-12-08T02:16:20.945Z,22.07
2018-12-08T02:18:51.451Z,24.27
2018-12-08T02:21:22.420Z,23.30
2018-12-08T02:23:53.028Z,19.67
2018-12-08T02:26:23.782Z,19.80
2018-12-08T02:28:54.064Z,21.90
2018-12-08T02:31:24.968Z,20.67
2018-12-08T02:33:55.348Z,20.00
2018-12-08T02:36:25.907Z,18.40
2018-12-08T02:38:56.259Z,17.43
2018-12-08T02:41:27.249Z,18.47
2018-12-08T02:43:57.769Z,14.77
2018-12-08T02:46:28.143Z,13.97
2018-12-08T02:48:58.812Z,50.37
2018-12-08T02:51:29.817Z,25.93
2018-12-08T02:54:00.379Z,21.50
2018-12-08T02:56:30.909Z,17.10
2018-12-08T02:59:02.093Z,13.10
2018-12-08T03:01:33.459Z,12.90
2018-12-08T03:04:04.200Z,12.27
2018-12-08T03:06:35.096Z,15.87
2018-12-08T03:09:07.531Z,17.30
2018-12-08T03:15:26.908Z,17.00
2018-12-08T03:17:57.319Z,18.80
2018-12-08T03:20:27.932Z,23.43
2018-12-08T03:22:58.470Z,23.23
2018-12-08T03:25:29.171Z,25.07
2018-12-08T03:27:59.912Z,22.90
2018-12-08T03:30:30.445Z,25.60
2018-12-08T03:33:00.888Z,24.87
2018-12-08T03:35:31.230Z,23.87
2018-12-08T03:38:01.674Z,22.90
2018-12-08T03:40:32.097Z,19.23
2018-12-08T03:43:03.795Z,25.37
2018-12-08T03:45:34.405Z,24.80
2018-12-08T03:48:04.276Z,24.10
2018-12-08T03:50:34.192Z,24.47
2018-12-08T03:53:05.727Z,24.60
2018-12-08T03:55:36.296Z,19.67
2018-12-08T03:58:06.441Z,18.17
2018-12-08T04:00:36.259Z,17.07
2018-12-08T04:03:06.770Z,16.50
2018-12-08T04:05:36.584Z,18.90
2018-12-08T04:08:06.412Z,17.87
2018-12-08T04:10:36.269Z,18.57
2018-12-08T04:13:06.155Z,17.53
2018-12-08T04:15:36.077Z,18.33
2018-12-08T04:18:06.027Z,17.70
2018-12-08T04:20:35.812Z,16.70
2018-12-08T04:23:05.651Z,20.73
2018-12-08T04:25:35.532Z,19.50
2018-12-08T04:28:05.271Z,16.00
2018-12-08T04:30:35.049Z,20.30
2018-12-08T04:33:04.874Z,23.00
2018-12-08T04:35:34.761Z,17.20
2018-12-08T04:38:04.655Z,20.27
2018-12-08T04:40:34.513Z,19.57
2018-12-08T04:43:04.239Z,17.13
2018-12-08T04:45:34.171Z,19.50
2018-12-08T04:48:04.074Z,17.80
2018-12-08T04:50:34.165Z,32.50
2018-12-08T04:53:04.568Z,35.67
2018-12-08T04:55:35.310Z,21.57
2018-12-08T04:58:05.909Z,21.17
2018-12-08T05:00:36.584Z,22.77
2018-12-08T05:03:08.291Z,20.90
2018-12-08T05:05:39.157Z,24.80
2018-12-08T05:08:09.686Z,19.50
2018-12-08T05:10:40.110Z,21.83
2018-12-08T05:13:10.729Z,23.10
2018-12-08T05:15:41.484Z,28.03
2018-12-08T05:18:11.899Z,41.37
2018-12-08T05:20:42.524Z,38.70
2018-12-08T05:23:13.355Z,23.33
2018-12-08T05:25:43.914Z,28.57
2018-12-08T05:28:14.761Z,33.70
2018-12-08T05:30:45.124Z,35.90
2018-12-08T05:33:15.919Z,42.67
2018-12-08T05:35:46.955Z,43.57
2018-12-08T05:38:17.744Z,41.00
2018-12-08T05:40:48.543Z,44.77
2018-12-08T05:43:19.968Z,39.33
2018-12-08T05:45:50.400Z,48.10
2018-12-08T05:48:20.989Z,32.40
2018-12-08T05:50:51.504Z,22.90
2018-12-08T05:53:22.664Z,20.73
2018-12-08T06:00:46.491Z,18.70
2018-12-08T06:03:16.794Z,15.97
2018-12-08T06:05:47.281Z,22.40
2018-12-08T06:08:17.892Z,20.33
2018-12-08T06:10:48.326Z,31.00
2018-12-08T06:13:18.877Z,35.53
2018-12-08T06:15:49.240Z,29.10
2018-12-08T06:18:20.875Z,32.10
2018-12-08T06:20:51.441Z,46.20
2018-12-08T06:23:22.077Z,62.00
2018-12-08T06:25:52.963Z,53.27
2018-12-08T06:28:29.635Z,89.40
2018-12-08T06:31:00.316Z,75.07
2018-12-08T06:33:30.861Z,77.77
2018-12-08T06:36:01.027Z,105.47
2018-12-08T06:38:32.908Z,54.73
2018-12-08T06:41:03.516Z,50.67
2018-12-08T06:43:33.796Z,44.63
2018-12-08T06:46:04.568Z,48.67
2018-12-08T06:48:36.057Z,49.70
2018-12-08T06:51:06.632Z,54.80
2018-12-08T06:53:37.139Z,62.80
2018-12-08T06:56:07.723Z,72.00
2018-12-08T06:58:38.041Z,75.67
2018-12-08T07:01:08.631Z,68.27
2018-12-08T07:03:39.129Z,67.40
2018-12-08T07:06:09.624Z,56.57
2018-12-08T07:08:40.763Z,48.33
2018-12-08T07:11:11.177Z,44.53
2018-12-08T07:13:41.620Z,40.00
2018-12-08T07:16:12.174Z,34.30
2018-12-08T07:18:43.344Z,43.77
2018-12-08T07:21:14.065Z,36.40
2018-12-08T07:23:44.633Z,29.27
2018-12-08T07:26:15.202Z,33.30
2018-12-08T07:28:46.531Z,25.27
2018-12-08T07:31:17.172Z,26.67
2018-12-08T07:33:47.514Z,26.97
2018-12-08T07:36:18.222Z,29.57
2018-12-08T07:38:48.968Z,28.43
2018-12-08T07:41:19.497Z,28.30
2018-12-08T07:43:49.983Z,28.80
2018-12-08T07:46:20.551Z,29.63
2018-12-08T07:48:51.382Z,29.57
2018-12-08T07:51:21.998Z,29.57
2018-12-08T07:53:52.666Z,25.63
2018-12-08T07:56:22.482Z,25.73
2018-12-08T07:58:52.366Z,24.97
2018-12-08T08:01:22.578Z,24.80
2018-12-08T08:03:52.635Z,30.10
2018-12-08T08:06:22.508Z,27.30
2018-12-08T08:08:52.468Z,33.47
2018-12-08T08:11:22.334Z,41.57
2018-12-08T08:13:52.221Z,32.40
2018-12-08T08:16:22.088Z,32.10
2018-12-08T08:18:51.973Z,29.20
2018-12-08T08:21:21.912Z,37.40
2018-12-08T08:23:51.800Z,37.60
2018-12-08T08:26:21.709Z,35.17
2018-12-08T08:28:51.594Z,33.27
2018-12-08T08:31:21.400Z,35.10
2018-12-08T08:33:51.892Z,34.30
2018-12-08T08:36:21.805Z,30.17
2018-12-08T08:38:51.690Z,32.80
2018-12-08T08:41:21.597Z,31.50
2018-12-08T08:43:51.519Z,31.37
2018-12-08T08:46:21.420Z,37.77
2018-12-08T08:48:51.320Z,33.00
2018-12-08T08:51:21.133Z,34.77
2018-12-08T08:53:51.059Z,39.63
2018-12-08T08:56:20.982Z,33.40
2018-12-08T08:58:50.834Z,35.00
2018-12-08T09:01:20.706Z,31.37
2018-12-08T09:03:50.868Z,36.77
2018-12-08T09:06:20.776Z,31.20
2018-12-08T09:08:50.757Z,23.87
2018-12-08T09:11:20.624Z,24.23
2018-12-08T09:13:50.493Z,23.80
2018-12-08T09:16:20.377Z,21.40
2018-12-08T09:18:50.165Z,28.80
2018-12-08T09:21:20.012Z,20.50
2018-12-08T09:23:49.798Z,28.77
2018-12-08T09:26:19.700Z,29.93
2018-12-08T09:28:49.484Z,28.47
2018-12-08T09:31:20.347Z,35.07
2018-12-08T09:33:52.924Z,18.77
2018-12-08T09:36:23.367Z,26.13
2018-12-08T09:38:53.884Z,19.50
2018-12-08T09:41:24.646Z,22.73
2018-12-08T09:43:55.349Z,16.67
2018-12-08T09:46:25.876Z,16.60
2018-12-08T09:48:57.600Z,20.80
2018-12-08T09:51:28.292Z,22.10
2018-12-08T09:53:58.545Z,23.13
2018-12-08T09:56:29.261Z,19.77
2018-12-08T09:58:59.418Z,20.70
2018-12-08T10:01:29.330Z,19.57
2018-12-08T10:03:59.310Z,19.97
2018-12-08T10:06:29.200Z,18.27
2018-12-08T10:08:59.097Z,18.00
2018-12-08T10:11:29.000Z,19.23
2018-12-08T10:13:58.831Z,16.20
2018-12-08T10:16:28.711Z,17.70
2018-12-08T10:18:58.607Z,19.77
2018-12-08T10:21:28.460Z,18.90
2018-12-08T10:23:58.187Z,17.13
2018-12-08T10:26:28.050Z,18.83
2018-12-08T10:28:57.853Z,19.90
2018-12-08T10:31:27.729Z,20.20
2018-12-08T10:33:57.632Z,19.87
2018-12-08T10:36:27.532Z,21.47
2018-12-08T10:38:57.367Z,17.83
2018-12-08T10:41:27.250Z,19.87
2018-12-08T10:43:57.141Z,23.00
2018-12-08T10:46:27.070Z,20.83
2018-12-08T10:48:56.970Z,24.23
2018-12-08T10:51:26.819Z,26.83
2018-12-08T10:53:56.650Z,24.10
2018-12-08T10:56:26.545Z,31.23
2018-12-08T10:58:56.407Z,46.40
2018-12-08T11:01:30.232Z,38.80
2018-12-08T11:04:00.114Z,66.10
2018-12-08T11:06:30.395Z,24.30
2018-12-08T11:09:00.776Z,27.90
2018-12-08T11:11:30.632Z,26.00
2018-12-08T11:14:00.536Z,31.00
2018-12-08T11:16:30.464Z,36.80
2018-12-08T11:19:00.279Z,24.70
2018-12-08T11:21:30.209Z,27.20
2018-12-08T11:24:00.084Z,29.50
2018-12-08T11:26:29.945Z,25.60
2018-12-08T11:28:59.927Z,26.07
2018-12-08T11:31:29.813Z,30.83
2018-12-08T11:33:59.650Z,27.77
2018-12-08T11:36:30.035Z,26.10
2018-12-08T11:39:00.645Z,32.33
2018-12-08T11:41:30.841Z,31.10
2018-12-08T11:44:00.724Z,30.83
2018-12-08T11:46:30.601Z,26.83
2018-12-08T11:49:01.186Z,30.17
2018-12-08T11:51:31.595Z,33.90
2018-12-08T11:54:02.211Z,40.07
2018-12-08T11:56:32.651Z,42.10
2018-12-08T11:59:03.268Z,39.03
2018-12-08T12:01:33.920Z,40.10
2018-12-08T12:04:04.620Z,33.30
2018-12-08T12:06:35.332Z,34.50
2018-12-08T12:09:08.309Z,41.37
2018-12-08T12:11:39.220Z,35.57
2018-12-08T12:14:10.445Z,34.43
2018-12-08T12:16:41.339Z,31.70
2018-12-08T12:19:13.440Z,45.50
2018-12-08T12:21:44.567Z,30.50
2018-12-08T12:24:14.971Z,28.50
2018-12-08T12:26:45.804Z,22.00
2018-12-08T12:29:17.555Z,26.00
2018-12-08T12:31:48.012Z,25.27
2018-12-08T12:34:19.043Z,23.90
2018-12-08T12:36:49.868Z,23.20
2018-12-08T12:39:21.387Z,30.17
2018-12-08T12:41:52.181Z,26.67
2018-12-08T12:44:23.463Z,36.77
2018-12-08T12:46:54.168Z,30.83
2018-12-08T12:49:24.391Z,25.03
2018-12-08T12:51:54.358Z,22.93
2018-12-08T12:54:24.728Z,26.20
2018-12-08T12:56:55.355Z,23.67
2018-12-08T12:59:26.345Z,20.80
2018-12-08T13:01:57.083Z,24.50
2018-12-08T13:04:27.570Z,32.43
2018-12-08T13:06:58.855Z,29.27
2018-12-08T13:09:29.671Z,36.13
2018-12-08T13:12:00.413Z,43.03
2018-12-08T13:14:31.007Z,42.03
2018-12-08T13:17:01.629Z,53.70
2018-12-08T13:19:33.268Z,39.00
2018-12-08T13:22:03.582Z,34.90
2018-12-08T13:24:34.644Z,33.47
2018-12-08T13:27:05.267Z,38.67
2018-12-08T13:29:37.073Z,53.80
2018-12-08T13:32:07.690Z,54.00
2018-12-08T13:34:38.307Z,55.00
2018-12-08T13:37:09.066Z,63.87
2018-12-08T13:39:39.887Z,56.47
2018-12-08T13:42:10.513Z,63.87
2018-12-08T13:44:41.580Z,65.33
2018-12-08T13:47:12.078Z,70.60
2018-12-08T13:49:43.267Z,91.40
2018-12-08T13:52:13.978Z,75.67
2018-12-08T13:54:51.224Z,77.20
2018-12-08T13:57:21.828Z,63.57
2018-12-08T13:59:54.686Z,65.23
2018-12-08T14:02:25.263Z,68.00
2018-12-08T14:04:56.068Z,96.73
2018-12-08T14:07:27.106Z,103.30
2018-12-08T14:09:57.900Z,97.40
2018-12-08T14:12:28.320Z,84.37
2018-12-08T14:14:58.852Z,81.07
2018-12-08T14:17:29.499Z,80.80
2018-12-08T14:20:10.218Z,82.10
2018-12-08T14:22:41.051Z,84.90
2018-12-08T14:25:11.811Z,94.30
2018-12-08T14:27:42.524Z,104.10
2018-12-08T14:30:13.681Z,102.57
2018-12-08T14:32:44.318Z,133.30
2018-12-08T14:35:15.052Z,112.93
2018-12-08T14:37:45.599Z,111.50
2018-12-08T14:40:16.751Z,104.80
2018-12-08T14:42:47.585Z,107.87
2018-12-08T14:45:18.483Z,111.27
2018-12-08T14:47:49.156Z,119.63
2018-12-08T14:50:20.683Z,110.90
2018-12-08T14:52:51.395Z,105.50
2018-12-08T14:55:21.796Z,119.57
2018-12-08T14:57:52.164Z,125.83
2018-12-08T15:00:22.618Z,119.60
2018-12-08T15:02:53.133Z,141.97
2018-12-08T15:05:23.396Z,109.63
2018-12-08T15:07:53.771Z,55.20
2018-12-08T15:10:25.333Z,49.73
2018-12-08T15:12:55.999Z,41.77
2018-12-08T15:15:26.364Z,50.50
2018-12-08T15:17:57.211Z,82.27
2018-12-08T15:20:28.807Z,79.70
2018-12-08T15:22:59.231Z,76.43
2018-12-08T15:25:29.303Z,76.07
2018-12-08T15:27:59.812Z,80.27
2018-12-08T15:30:30.172Z,75.83
2018-12-08T15:33:00.775Z,74.43
2018-12-08T15:35:31.319Z,80.83
2018-12-08T15:38:01.991Z,74.77
2018-12-08T15:40:32.749Z,77.37
2018-12-08T15:43:03.138Z,66.60
2018-12-08T15:45:33.938Z,60.80
2018-12-08T15:48:04.367Z,61.17
2018-12-08T15:50:34.616Z,67.43
2018-12-08T15:53:05.208Z,76.43
2018-12-08T15:55:35.826Z,73.07
2018-12-08T15:58:06.704Z,62.47
2018-12-08T16:00:38.455Z,76.77
2018-12-08T16:03:09.194Z,77.40
2018-12-08T16:05:39.941Z,81.73
2018-12-08T16:08:10.969Z,80.87
2018-12-08T16:10:42.246Z,113.63
2018-12-08T16:13:12.718Z,86.63
2018-12-08T16:15:43.374Z,85.00
2018-12-08T16:18:14.124Z,85.47
2018-12-08T16:20:45.463Z,139.23
2018-12-08T16:23:15.956Z,77.90
2018-12-08T16:25:46.500Z,85.43
2018-12-08T16:28:17.258Z,97.03
2018-12-08T16:30:48.516Z,100.27
2018-12-08T16:33:18.931Z,116.07
2018-12-08T16:35:49.445Z,65.57
2018-12-08T16:38:19.736Z,66.43
2018-12-08T16:40:51.139Z,55.50
2018-12-08T16:43:21.825Z,70.27
2018-12-08T16:45:52.668Z,78.33
2018-12-08T16:48:23.407Z,80.73
2018-12-08T16:50:55.080Z,89.27
2018-12-08T16:53:25.344Z,124.23
2018-12-08T16:55:55.594Z,99.30
2018-12-08T16:58:25.983Z,110.63
2018-12-08T17:00:58.077Z,89.40
2018-12-08T17:03:28.630Z,90.50
2018-12-08T17:05:59.373Z,84.20
2018-12-08T17:08:30.244Z,115.90
2018-12-08T17:11:01.355Z,113.20
2018-12-08T17:13:32.016Z,86.50
2018-12-08T17:16:02.332Z,123.43
2018-12-08T17:18:32.547Z,132.77
2018-12-08T17:21:03.980Z,130.70
2018-12-08T17:23:34.477Z,153.17
2018-12-08T17:26:05.134Z,158.63
2018-12-08T17:28:35.836Z,100.70
2018-12-08T17:31:07.828Z,90.00
2018-12-08T17:33:38.767Z,94.17
2018-12-08T17:36:09.265Z,84.10
2018-12-08T17:38:40.122Z,116.00
2018-12-08T17:41:11.132Z,90.50
2018-12-08T17:43:41.703Z,76.07
2018-12-08T17:46:12.613Z,74.93
2018-12-08T17:48:43.357Z,83.47
2018-12-08T17:51:14.110Z,74.20
2018-12-08T17:53:44.615Z,75.50
2018-12-08T17:56:15.352Z,73.90
2018-12-08T17:58:45.879Z,70.70
2018-12-08T18:01:17.059Z,70.40
2018-12-08T18:03:47.580Z,72.37
2018-12-08T18:06:18.167Z,67.27
2018-12-08T18:08:48.830Z,76.53
2018-12-08T18:11:19.921Z,63.70
2018-12-08T18:13:50.352Z,63.20
2018-12-08T18:16:20.924Z,62.63
2018-12-08T18:18:51.347Z,56.60
2018-12-08T18:21:22.771Z,107.97
2018-12-08T18:23:53.567Z,74.77
2018-12-08T18:26:23.828Z,81.47
2018-12-08T18:28:54.455Z,80.37
2018-12-08T18:31:25.742Z,91.27
2018-12-08T18:33:56.097Z,98.37
2018-12-08T18:36:26.786Z,106.17
2018-12-08T18:38:57.401Z,134.30
2018-12-08T18:41:28.245Z,132.53
2018-12-08T18:43:58.894Z,122.60
2018-12-08T18:46:29.396Z,118.10
2018-12-08T18:48:59.727Z,123.07
2018-12-08T18:51:30.287Z,127.73
2018-12-08T18:54:00.796Z,120.77
2018-12-08T18:56:31.315Z,101.93
2018-12-08T18:59:02.168Z,107.47
2018-12-08T19:01:33.501Z,80.97
2018-12-08T19:04:04.069Z,71.80
2018-12-08T19:06:34.599Z,59.03
2018-12-08T19:10:08.842Z,57.70
2018-12-08T19:12:39.634Z,77.13
2018-12-08T19:15:11.012Z,67.67
2018-12-08T19:17:42.261Z,63.67
2018-12-08T19:20:13.533Z,57.67
2018-12-08T19:22:43.976Z,61.43
2018-12-08T19:25:14.859Z,57.57
2018-12-08T19:27:46.805Z,59.60
2018-12-08T19:30:17.953Z,76.97
2018-12-08T19:32:48.585Z,77.27
2018-12-08T19:35:18.968Z,77.67
2018-12-08T19:37:50.406Z,73.77
2018-12-08T19:40:21.460Z,71.07
2018-12-08T19:42:52.309Z,70.27
2018-12-08T19:45:23.281Z,69.83
2018-12-08T19:47:54.667Z,68.80
2018-12-08T19:50:24.942Z,66.67
2018-12-08T19:52:56.067Z,62.30
2018-12-08T19:55:26.587Z,59.17
2018-12-08T19:57:57.207Z,58.77
2018-12-08T20:00:27.910Z,79.10
2018-12-08T20:02:57.980Z,99.93
2018-12-08T20:05:28.922Z,89.47
2018-12-08T20:08:00.240Z,124.07
2018-12-08T20:10:31.217Z,111.47
2018-12-08T20:13:01.801Z,101.20
2018-12-08T20:15:32.557Z,96.97
2018-12-08T20:18:03.936Z,102.47
2018-12-08T20:20:34.478Z,86.77
2018-12-08T20:23:05.194Z,79.70
2018-12-08T20:25:35.803Z,77.93
2018-12-08T20:28:06.641Z,72.27
2018-12-08T20:30:37.499Z,70.43
2018-12-08T20:33:07.871Z,74.57
2018-12-08T20:35:38.702Z,66.23
2018-12-08T20:38:09.676Z,62.27
2018-12-08T20:40:40.400Z,63.47
2018-12-08T20:43:11.048Z,88.00
2018-12-08T20:45:41.463Z,86.83
2018-12-08T20:48:12.741Z,72.80
2018-12-08T20:50:43.243Z,65.40
2018-12-08T20:53:15.081Z,63.70
2018-12-08T20:55:45.944Z,63.33
2018-12-08T20:58:17.709Z,63.70
2018-12-08T21:00:48.263Z,53.23
2018-12-08T21:03:19.382Z,56.83
2018-12-08T21:05:50.064Z,57.70
2018-12-08T21:08:20.989Z,57.67
2018-12-08T21:10:51.924Z,52.90
2018-12-08T21:13:22.294Z,53.83
2018-12-08T21:15:52.903Z,51.83
2018-12-08T21:18:23.757Z,48.83
2018-12-08T21:20:54.157Z,46.50
2018-12-08T21:23:24.643Z,41.77
2018-12-08T21:25:55.244Z,34.10
2018-12-08T21:28:26.670Z,30.67
2018-12-08T21:30:57.249Z,27.73
2018-12-08T21:33:27.974Z,25.53
2018-12-08T21:35:58.875Z,22.73
2018-12-08T21:38:30.084Z,24.80
2018-12-08T21:41:00.623Z,24.50
2018-12-08T21:43:31.081Z,30.20
2018-12-08T21:46:02.009Z,31.30
2018-12-08T21:48:33.720Z,37.27
2018-12-08T21:51:04.338Z,37.67
2018-12-08T21:53:34.777Z,33.17
2018-12-08T21:56:05.163Z,33.17
2018-12-08T21:58:36.227Z,30.27
2018-12-08T22:01:06.977Z,24.10
2018-12-08T22:03:37.375Z,25.70
2018-12-08T22:06:08.076Z,25.73
2018-12-08T22:08:38.728Z,27.87
2018-12-08T22:11:09.814Z,26.87
2018-12-08T22:13:40.340Z,24.87
2018-12-08T22:16:10.847Z,23.00
2018-12-08T22:18:42.621Z,26.33
2018-12-08T22:21:13.622Z,30.90
2018-12-08T22:23:44.374Z,24.90
2018-12-08T22:26:15.785Z,26.37
2018-12-08T22:28:47.595Z,27.50
2018-12-08T22:31:18.412Z,24.47
2018-12-08T22:33:49.100Z,18.50
2018-12-08T22:36:19.977Z,19.13
2018-12-08T22:38:50.920Z,13.97
2018-12-08T22:41:21.885Z,15.60
2018-12-08T22:43:52.668Z,16.60
2018-12-08T22:46:23.653Z,15.73
2018-12-08T22:48:54.543Z,15.73
2018-12-08T22:51:26.545Z,15.70
2018-12-08T22:53:57.344Z,25.70
2018-12-08T22:56:27.833Z,34.57
2018-12-08T22:58:58.959Z,41.90
2018-12-08T23:01:29.420Z,43.50
2018-12-08T23:04:00.196Z,38.00
2018-12-08T23:06:31.092Z,41.93
2018-12-08T23:09:02.542Z,29.47
2018-12-08T23:11:33.246Z,30.50
2018-12-08T23:14:03.871Z,29.93
2018-12-08T23:16:34.379Z,31.97
2018-12-08T23:19:04.942Z,31.17
2018-12-08T23:21:35.467Z,30.80
2018-12-08T23:24:05.756Z,30.97
2018-12-08T23:26:36.089Z,28.03
2018-12-08T23:29:07.004Z,27.80
2018-12-08T23:31:37.440Z,26.80
2018-12-08T23:34:08.061Z,26.07
2018-12-08T23:36:38.726Z,27.80
2018-12-08T23:39:09.348Z,26.90
2018-12-08T23:41:40.065Z,26.60
2018-12-08T23:44:10.531Z,28.77
2018-12-08T23:46:40.979Z,30.00
2018-12-08T23:49:12.489Z,32.47
2018-12-08T23:51:43.018Z,33.00
2018-12-08T23:54:13.564Z,30.00
2018-12-08T23:56:44.260Z,26.47
2018-12-08T23:59:15.876Z,24.87
